Time;durP1;ratioP1;P1;durP2;ratioP2;P2;SDS_P1;SDS_P2;PMS_P1;PMS_P2;Temp;Humidity;BMP_temperature;BMP_pressure;BME280_temperature;BME280_humidity;BME280_pressure;Samples;Min_cycle;Max_cycle;Signal;HPM_P1;HPM_P2
2021/12/14 00:01:16;;;;;;;6.63;2.88;;;7.30;99.90;;;;;;4970505;28;20042;-57
2021/12/14 00:03:46;;;;;;;6.68;3.50;;;7.30;99.90;;;;;;4969635;28;20023;-58
2021/12/14 00:06:13;;;;;;;5.63;3.22;;;7.20;99.90;;;;;;4969285;28;20054;-56
2021/12/14 00:08:55;;;;;;;7.57;3.72;;;7.30;99.90;;;;;;4970176;28;20045;-55
2021/12/14 00:12:15;;;;;;;5.45;3.38;;;7.30;99.90;;;;;;4969966;28;20037;-57
2021/12/14 00:16:57;;;;;;;6.65;4.00;;;7.30;99.90;;;;;;4970882;28;20030;-50
2021/12/14 00:19:25;;;;;;;6.18;3.10;;;7.30;99.90;;;;;;4970277;28;20579;-55
2021/12/14 00:21:54;;;;;;;7.50;2.80;;;7.30;99.90;;;;;;4969194;28;20128;-56
2021/12/14 00:24:25;;;;;;;5.60;2.38;;;7.30;99.90;;;;;;4975404;28;20022;-55
2021/12/14 00:26:56;;;;;;;5.05;3.20;;;7.20;99.90;;;;;;4971074;28;20122;-57
2021/12/14 00:29:32;;;;;;;4.43;2.40;;;7.30;99.90;;;;;;4971772;28;20019;-55
2021/12/14 00:32:02;;;;;;;8.30;3.00;;;7.30;99.90;;;;;;4973011;28;20035;-56
2021/12/14 00:34:38;;;;;;;8.40;4.18;;;7.20;99.90;;;;;;4954063;28;20106;-55
2021/12/14 00:37:11;;;;;;;7.15;3.05;;;7.30;99.90;;;;;;4963292;28;20029;-57
2021/12/14 00:39:37;;;;;;;8.68;4.18;;;7.20;99.90;;;;;;4971345;28;20054;-56
2021/12/14 00:42:04;;;;;;;5.45;2.72;;;7.20;99.90;;;;;;4971020;28;20031;-57
2021/12/14 00:44:30;;;;;;;8.43;3.38;;;7.20;99.90;;;;;;4963724;28;20043;-58
2021/12/14 00:46:55;;;;;;;7.78;4.03;;;7.20;99.90;;;;;;4969794;28;20030;-57
2021/12/14 00:49:21;;;;;;;5.80;3.15;;;7.20;99.90;;;;;;4971614;28;20535;-56
2021/12/14 00:51:48;;;;;;;14.25;8.15;;;7.20;99.90;;;;;;4972191;28;20074;-54
2021/12/14 00:54:16;;;;;;;14.75;6.07;;;7.20;99.90;;;;;;4972498;28;20034;-55
2021/12/14 00:56:42;;;;;;;15.20;7.18;;;7.10;99.90;;;;;;4971378;28;20030;-56
2021/12/14 00:59:10;;;;;;;7.68;4.43;;;7.20;99.90;;;;;;4969407;28;20844;-56
2021/12/14 01:01:47;;;;;;;6.95;4.13;;;7.10;99.90;;;;;;4960552;28;20028;-56
2021/12/14 01:04:21;;;;;;;6.97;3.53;;;7.10;99.90;;;;;;4957291;28;20023;-56
2021/12/14 01:06:47;;;;;;;5.28;3.22;;;7.10;99.90;;;;;;4963545;28;20376;-55
2021/12/14 01:09:21;;;;;;;8.45;4.53;;;7.10;99.90;;;;;;4975900;28;20085;-55
2021/12/14 01:11:48;;;;;;;12.23;4.00;;;7.20;99.90;;;;;;4972939;28;20030;-57
2021/12/14 01:14:40;;;;;;;6.53;4.50;;;7.20;99.90;;;;;;4972522;28;20042;-55
2021/12/14 01:17:25;;;;;;;10.05;4.88;;;7.20;99.90;;;;;;4963875;28;20046;-56
2021/12/14 01:19:56;;;;;;;9.57;5.50;;;7.10;99.90;;;;;;4967996;28;20031;-53
2021/12/14 01:22:46;;;;;;;7.50;4.57;;;7.10;99.90;;;;;;4971053;28;20043;-57
2021/12/14 01:25:25;;;;;;;12.18;7.28;;;7.10;99.90;;;;;;4968963;28;20019;-57
2021/12/14 01:27:53;;;;;;;9.30;6.10;;;7.10;99.90;;;;;;4969825;28;20054;-57
2021/12/14 01:30:27;;;;;;;8.23;5.38;;;7.20;99.90;;;;;;4968823;28;20026;-57
2021/12/14 01:32:54;;;;;;;8.48;5.03;;;7.10;99.90;;;;;;4969027;28;20027;-57
2021/12/14 01:35:25;;;;;;;7.88;4.25;;;7.10;99.90;;;;;;4969729;28;20030;-52
2021/12/14 01:38:15;;;;;;;7.00;4.18;;;7.10;99.90;;;;;;4969469;28;20029;-56
2021/12/14 01:40:53;;;;;;;5.57;3.75;;;7.10;99.90;;;;;;4954315;28;20031;-55
2021/12/14 01:43:29;;;;;;;9.80;4.22;;;7.10;99.90;;;;;;4968578;28;20074;-53
2021/12/14 01:45:57;;;;;;;8.40;4.13;;;7.10;99.90;;;;;;4969267;28;20031;-56
2021/12/14 01:48:23;;;;;;;6.22;3.70;;;7.10;99.90;;;;;;4969142;28;20031;-57
2021/12/14 01:50:56;;;;;;;7.40;4.38;;;7.10;99.90;;;;;;4969183;28;20041;-56
2021/12/14 01:53:23;;;;;;;7.93;5.05;;;7.10;99.90;;;;;;4969771;28;20121;-56
2021/12/14 01:55:53;;;;;;;7.15;4.22;;;7.10;99.90;;;;;;4964669;28;20452;-56
2021/12/14 01:58:22;;;;;;;8.35;3.40;;;7.10;99.90;;;;;;4969844;28;20066;-57
2021/12/14 02:01:08;;;;;;;6.88;4.57;;;7.10;99.90;;;;;;4968890;28;20101;-57
2021/12/14 02:03:39;;;;;;;6.03;3.45;;;7.10;99.90;;;;;;4968327;28;20081;-57
2021/12/14 02:06:05;;;;;;;8.57;3.92;;;7.10;99.90;;;;;;4969611;28;20042;-58
2021/12/14 02:08:38;;;;;;;6.13;3.58;;;7.10;99.90;;;;;;4968204;28;20026;-58
2021/12/14 02:11:07;;;;;;;10.88;4.90;;;7.10;99.90;;;;;;4968143;28;20688;-58
2021/12/14 02:13:37;;;;;;;10.23;5.75;;;7.10;99.90;;;;;;4969577;28;20384;-55
2021/12/14 02:16:05;;;;;;;9.82;6.13;;;7.20;99.90;;;;;;4969692;28;20027;-57
2021/12/14 02:18:31;;;;;;;9.70;5.53;;;7.20;99.90;;;;;;4967796;28;20027;-57
2021/12/14 02:21:05;;;;;;;8.85;5.20;;;7.20;99.90;;;;;;4969479;28;20023;-49
2021/12/14 02:23:33;;;;;;;8.68;4.28;;;7.20;99.90;;;;;;4966956;28;20082;-55
2021/12/14 02:26:05;;;;;;;8.80;4.13;;;7.20;99.90;;;;;;4966275;28;20487;-57
2021/12/14 02:28:30;;;;;;;6.30;3.63;;;7.20;99.90;;;;;;4966752;28;20366;-59
2021/12/14 02:30:58;;;;;;;7.55;4.65;;;7.20;99.90;;;;;;4966247;28;20039;-53
2021/12/14 02:33:29;;;;;;;7.07;4.53;;;7.20;99.90;;;;;;4964499;28;20023;-56
2021/12/14 02:35:56;;;;;;;7.85;4.35;;;7.20;99.90;;;;;;4964991;28;20093;-58
2021/12/14 02:38:23;;;;;;;8.18;4.53;;;7.20;99.90;;;;;;4962392;28;20074;-57
2021/12/14 02:40:57;;;;;;;11.20;5.88;;;7.30;99.90;;;;;;4964401;28;20046;-58
2021/12/14 02:43:34;;;;;;;10.48;5.15;;;7.30;99.90;;;;;;4965361;28;20477;-54
2021/12/14 02:46:19;;;;;;;10.43;5.80;;;7.30;99.90;;;;;;4963359;28;20042;-55
2021/12/14 02:48:58;;;;;;;14.57;7.55;;;7.20;99.90;;;;;;4965083;28;20850;-59
2021/12/14 02:51:33;;;;;;;12.40;5.95;;;7.20;99.90;;;;;;4967120;28;20034;-58
2021/12/14 02:54:10;;;;;;;7.53;4.93;;;7.20;99.90;;;;;;4962103;28;20031;-58
2021/12/14 02:56:39;;;;;;;8.48;5.10;;;7.20;99.90;;;;;;4966883;28;20047;-58
2021/12/14 02:59:13;;;;;;;9.15;5.35;;;7.20;99.90;;;;;;4966351;28;20374;-58
2021/12/14 03:01:41;;;;;;;8.73;5.07;;;7.20;99.90;;;;;;4965706;28;20042;-57
2021/12/14 03:04:09;;;;;;;7.20;4.25;;;7.20;99.90;;;;;;4968996;28;20046;-59
2021/12/14 03:06:49;;;;;;;8.55;4.88;;;7.20;99.90;;;;;;4969279;28;20030;-56
2021/12/14 03:12:04;;;;;;;10.68;5.25;;;7.20;99.90;;;;;;4972258;28;20061;-59
2021/12/14 03:14:30;;;;;;;14.20;7.05;;;7.20;99.90;;;;;;4972819;28;20097;-57
2021/12/14 03:16:56;;;;;;;9.35;6.25;;;7.20;99.90;;;;;;4969867;28;20046;-50
2021/12/14 03:19:21;;;;;;;9.60;5.18;;;7.20;99.90;;;;;;4971470;28;20552;-57
2021/12/14 03:21:49;;;;;;;11.23;5.93;;;7.20;99.90;;;;;;4970613;28;20110;-58
2021/12/14 03:24:16;;;;;;;11.93;5.70;;;7.30;99.90;;;;;;4964472;28;20031;-58
2021/12/14 03:26:45;;;;;;;11.00;5.10;;;7.30;99.90;;;;;;4969636;28;20027;-57
2021/12/14 03:29:17;;;;;;;9.75;6.40;;;7.30;99.90;;;;;;4968748;28;20049;-58
2021/12/14 03:31:45;;;;;;;9.73;6.18;;;7.30;99.90;;;;;;4967358;28;20027;-58
2021/12/14 03:34:18;;;;;;;12.18;6.00;;;7.20;99.90;;;;;;4971866;28;20402;-50
2021/12/14 03:36:54;;;;;;;9.00;5.78;;;7.30;99.90;;;;;;4970123;28;20136;-56
2021/12/14 03:39:25;;;;;;;13.02;6.43;;;7.20;99.90;;;;;;4966926;28;20030;-56
2021/12/14 03:42:05;;;;;;;12.63;5.68;;;7.30;99.90;;;;;;4972274;28;20126;-56
2021/12/14 03:44:32;;;;;;;11.45;5.45;;;7.30;99.90;;;;;;4969559;28;20035;-59
2021/12/14 03:47:29;;;;;;;12.25;6.90;;;7.30;99.90;;;;;;4969525;28;20038;-57
2021/12/14 03:49:58;;;;;;;18.33;6.88;;;7.30;99.90;;;;;;4964756;28;20051;-58
2021/12/14 03:52:33;;;;;;;14.25;6.90;;;7.30;99.90;;;;;;4971376;28;20106;-51
2021/12/14 03:55:07;;;;;;;10.35;6.28;;;7.30;99.90;;;;;;4968024;28;20034;-58
2021/12/14 03:57:33;;;;;;;13.27;7.55;;;7.30;99.90;;;;;;4972179;28;20045;-59
2021/12/14 03:59:59;;;;;;;12.25;7.28;;;7.30;99.90;;;;;;4972461;28;20054;-59
2021/12/14 04:02:25;;;;;;;15.25;7.70;;;7.30;99.90;;;;;;4971020;28;20583;-56
2021/12/14 04:05:04;;;;;;;13.95;8.10;;;7.30;99.90;;;;;;4972623;28;20107;-56
2021/12/14 04:07:31;;;;;;;11.63;7.00;;;7.30;99.90;;;;;;4970302;28;20552;-57
2021/12/14 04:09:57;;;;;;;17.20;8.35;;;7.30;99.90;;;;;;4972755;28;20034;-55
2021/12/14 04:12:23;;;;;;;17.95;8.77;;;7.30;99.90;;;;;;4972105;28;20042;-57
2021/12/14 04:14:58;;;;;;;15.82;8.10;;;7.30;99.90;;;;;;4971697;28;20489;-58
2021/12/14 04:17:28;;;;;;;13.35;7.93;;;7.30;99.90;;;;;;4967129;28;20043;-58
2021/12/14 04:19:54;;;;;;;20.48;9.05;;;7.30;99.90;;;;;;4971117;28;20026;-58
2021/12/14 04:22:26;;;;;;;15.77;8.27;;;7.30;99.90;;;;;;4968038;28;20170;-58
2021/12/14 04:24:56;;;;;;;14.27;8.32;;;7.30;99.90;;;;;;4963511;28;20057;-57
2021/12/14 04:27:25;;;;;;;13.23;7.78;;;7.30;99.90;;;;;;4972370;28;20031;-58
2021/12/14 04:29:52;;;;;;;18.75;8.18;;;7.30;99.90;;;;;;4965371;28;20077;-57
2021/12/14 04:32:18;;;;;;;15.45;8.02;;;7.30;99.90;;;;;;4965859;28;20031;-54
2021/12/14 04:34:46;;;;;;;16.27;7.97;;;7.30;99.90;;;;;;4970714;28;20077;-58
2021/12/14 04:37:14;;;;;;;16.08;8.13;;;7.30;99.90;;;;;;4971528;28;20077;-57
2021/12/14 04:39:46;;;;;;;19.65;8.77;;;7.30;99.90;;;;;;4969315;28;20039;-57
2021/12/14 04:54:02;;;;;;;16.63;8.68;;;7.30;99.90;;;;;;4970272;28;20041;-58
2021/12/14 04:56:41;;;;;;;15.93;9.60;;;7.30;99.90;;;;;;4964759;28;20611;-57
2021/12/14 04:59:11;;;;;;;15.32;8.75;;;7.30;99.90;;;;;;4968752;28;20031;-56
2021/12/14 05:01:40;;;;;;;13.48;7.88;;;7.30;99.90;;;;;;4966827;28;21911;-55
2021/12/14 05:04:10;;;;;;;15.70;9.05;;;7.30;99.90;;;;;;4970259;28;20034;-58
2021/12/14 05:06:50;;;;;;;18.42;9.48;;;7.30;99.90;;;;;;4971113;28;20023;-56
2021/12/14 05:09:22;;;;;;;14.35;7.93;;;7.30;99.90;;;;;;4967640;28;20461;-58
2021/12/14 05:11:54;;;;;;;16.52;7.70;;;7.30;99.90;;;;;;4969892;28;20500;-58
2021/12/14 05:14:20;;;;;;;15.20;8.52;;;7.30;99.90;;;;;;4966302;28;20117;-58
2021/12/14 05:16:47;;;;;;;15.70;7.70;;;7.30;99.90;;;;;;4969305;28;20074;-58
2021/12/14 05:19:13;;;;;;;16.00;8.20;;;7.30;99.90;;;;;;4968494;28;20030;-57
2021/12/14 05:21:45;;;;;;;13.43;8.00;;;7.30;99.90;;;;;;4969064;28;20034;-56
2021/12/14 05:24:14;;;;;;;21.63;7.93;;;7.30;99.90;;;;;;4968855;28;20043;-57
2021/12/14 05:26:43;;;;;;;17.45;7.80;;;7.30;99.90;;;;;;4969228;28;20035;-58
2021/12/14 05:29:10;;;;;;;14.10;7.88;;;7.30;99.90;;;;;;4964218;28;20528;-57
2021/12/14 05:31:45;;;;;;;15.57;8.43;;;7.30;99.90;;;;;;4966342;28;20031;-56
2021/12/14 05:34:11;;;;;;;14.13;7.93;;;7.30;99.90;;;;;;4968521;28;20034;-57
2021/12/14 05:36:40;;;;;;;14.32;7.50;;;7.30;99.90;;;;;;4951707;28;20035;-58
2021/12/14 05:39:33;;;;;;;12.77;7.07;;;7.30;99.90;;;;;;4969624;28;20058;-58
2021/12/14 05:44:44;;;;;;;16.48;7.63;;;7.30;99.90;;;;;;4967656;28;20037;-58
2021/12/14 05:47:13;;;;;;;25.15;10.38;;;7.30;99.90;;;;;;4968456;28;20030;-57
2021/12/14 05:49:43;;;;;;;15.43;8.43;;;7.30;99.90;;;;;;4967693;28;20120;-58
2021/12/14 05:52:19;;;;;;;22.98;14.98;;;7.30;99.90;;;;;;4968404;28;20516;-58
2021/12/14 05:54:46;;;;;;;25.85;12.20;;;7.30;99.90;;;;;;4961359;28;20790;-56
2021/12/14 05:57:18;;;;;;;26.17;15.40;;;7.20;99.90;;;;;;4968798;28;20053;-55
2021/12/14 05:59:45;;;;;;;24.55;15.88;;;7.20;99.90;;;;;;4968739;28;20089;-57
2021/12/14 06:02:11;;;;;;;27.25;13.65;;;7.20;99.90;;;;;;4966723;28;20034;-57
2021/12/14 06:04:45;;;;;;;21.40;11.82;;;7.20;99.90;;;;;;4950184;28;20299;-58
2021/12/14 06:07:11;;;;;;;24.08;13.00;;;7.20;99.90;;;;;;4964369;28;20089;-57
2021/12/14 06:09:43;;;;;;;48.33;24.70;;;7.20;99.90;;;;;;4969024;28;20146;-58
2021/12/14 06:12:10;;;;;;;36.72;21.23;;;7.30;99.90;;;;;;4971649;28;20018;-56
2021/12/14 06:14:42;;;;;;;36.45;21.50;;;7.20;99.90;;;;;;4970457;28;20042;-57
2021/12/14 06:17:08;;;;;;;36.55;18.13;;;7.20;99.90;;;;;;4969440;28;20049;-58
2021/12/14 06:19:42;;;;;;;47.80;23.92;;;7.20;99.90;;;;;;4964896;28;20580;-56
2021/12/14 06:22:19;;;;;;;49.20;26.85;;;7.20;99.90;;;;;;4967091;28;20808;-58
2021/12/14 06:24:55;;;;;;;47.85;26.83;;;7.20;99.90;;;;;;4968082;28;20496;-54
2021/12/14 06:27:24;;;;;;;42.35;24.88;;;7.20;99.90;;;;;;4968446;28;20030;-58
2021/12/14 06:29:56;;;;;;;28.42;15.85;;;7.20;99.90;;;;;;4966635;28;20030;-58
2021/12/14 06:32:27;;;;;;;29.92;15.00;;;7.20;99.90;;;;;;4965955;28;20035;-58
2021/12/14 06:35:17;;;;;;;28.45;13.13;;;7.20;99.90;;;;;;4965917;28;20030;-58
2021/12/14 06:38:21;;;;;;;26.08;14.35;;;7.10;99.90;;;;;;4968254;28;20038;-55
2021/12/14 06:41:15;;;;;;;27.58;14.30;;;7.20;99.90;;;;;;4969372;28;20039;-58
2021/12/14 06:43:55;;;;;;;25.98;14.63;;;7.20;99.90;;;;;;4966323;28;20038;-55
2021/12/14 06:46:31;;;;;;;23.08;13.63;;;7.10;99.90;;;;;;4971384;28;20019;-54
2021/12/14 06:49:03;;;;;;;30.38;15.40;;;7.10;99.90;;;;;;4969602;28;20023;-57
2021/12/14 06:51:32;;;;;;;26.73;13.98;;;7.20;99.90;;;;;;4971983;28;20037;-55
2021/12/14 06:54:03;;;;;;;30.55;15.80;;;7.10;99.90;;;;;;4970995;28;20035;-59
2021/12/14 06:56:33;;;;;;;30.50;15.52;;;7.20;99.90;;;;;;4971905;28;20521;-60
2021/12/14 06:59:03;;;;;;;31.48;15.98;;;7.10;99.90;;;;;;4968950;28;20030;-54
2021/12/14 07:01:35;;;;;;;31.75;16.95;;;7.10;99.90;;;;;;4967433;28;20037;-58
2021/12/14 07:04:11;;;;;;;36.42;19.23;;;7.20;99.90;;;;;;4970173;28;20085;-57
2021/12/14 07:06:49;;;;;;;35.63;17.73;;;7.20;99.90;;;;;;4971651;28;20042;-58
2021/12/14 07:09:16;;;;;;;38.95;17.35;;;7.20;99.90;;;;;;4971691;28;20022;-58
2021/12/14 07:11:47;;;;;;;37.70;17.58;;;7.10;99.90;;;;;;4970705;28;20041;-57
2021/12/14 07:14:29;;;;;;;33.28;17.15;;;7.10;99.90;;;;;;4970084;28;20050;-55
2021/12/14 07:16:56;;;;;;;34.42;15.77;;;7.20;99.90;;;;;;4971873;28;20092;-58
2021/12/14 07:20:03;;;;;;;38.38;18.42;;;7.20;99.90;;;;;;4972223;28;20031;-58
2021/12/14 07:22:40;;;;;;;41.47;18.58;;;7.10;99.90;;;;;;4876014;29;20029;-58
2021/12/14 07:25:14;;;;;;;37.28;17.42;;;7.10;99.90;;;;;;4875171;29;20688;-57
2021/12/14 07:27:40;;;;;;;41.30;18.90;;;7.10;99.90;;;;;;4932109;28;20042;-57
2021/12/14 07:30:23;;;;;;;35.55;18.02;;;7.10;99.90;;;;;;4971655;28;20489;-58
2021/12/14 07:32:56;;;;;;;32.35;15.57;;;7.20;99.90;;;;;;4965763;28;20019;-58
2021/12/14 07:35:26;;;;;;;31.48;15.75;;;7.10;99.90;;;;;;4971463;28;20027;-55
2021/12/14 07:37:54;;;;;;;30.23;14.60;;;7.20;99.90;;;;;;4971660;28;20041;-57
2021/12/14 07:40:23;;;;;;;32.30;15.10;;;7.20;99.90;;;;;;4966629;28;20026;-58
2021/12/14 07:42:55;;;;;;;35.13;15.88;;;7.20;99.90;;;;;;4981057;23;20129;-57
2021/12/14 07:45:24;;;;;;;29.40;15.32;;;7.20;99.90;;;;;;4975787;28;20026;-59
2021/12/14 07:47:53;;;;;;;29.50;14.43;;;7.20;99.90;;;;;;4964644;28;20547;-59
2021/12/14 07:50:19;;;;;;;32.50;15.15;;;7.10;99.90;;;;;;4951955;28;20026;-59
2021/12/14 07:52:45;;;;;;;30.27;14.82;;;7.20;99.90;;;;;;4965746;28;20034;-58
2021/12/14 07:55:19;;;;;;;55.15;27.10;;;7.10;99.90;;;;;;4951862;28;20162;-58
2021/12/14 07:57:47;;;;;;;51.22;24.20;;;7.10;99.90;;;;;;4971504;28;20035;-57
2021/12/14 08:00:35;;;;;;;47.25;21.98;;;7.10;99.90;;;;;;4939378;28;25162;-59
2021/12/14 08:03:02;;;;;;;37.05;16.02;;;7.20;99.90;;;;;;4968015;28;20042;-58
2021/12/14 08:05:33;;;;;;;32.50;15.10;;;7.20;99.90;;;;;;4970068;28;20039;-58
2021/12/14 08:08:15;;;;;;;35.17;16.15;;;7.20;99.90;;;;;;4968646;28;20121;-59
2021/12/14 08:10:47;;;;;;;28.95;14.90;;;7.20;99.90;;;;;;4970294;28;20039;-59
2021/12/14 08:13:18;;;;;;;34.83;14.68;;;7.20;99.90;;;;;;4974101;28;20042;-59
2021/12/14 08:15:54;;;;;;;29.90;15.48;;;7.20;99.90;;;;;;4970898;28;20045;-59
2021/12/14 08:18:27;;;;;;;32.10;13.32;;;7.20;99.90;;;;;;4970805;28;20054;-58
2021/12/14 08:21:10;;;;;;;30.83;14.25;;;7.20;99.90;;;;;;4969639;28;20089;-59
2021/12/14 08:23:52;;;;;;;31.75;15.40;;;7.20;99.90;;;;;;4969465;28;20030;-59
2021/12/14 08:26:28;;;;;;;27.02;13.73;;;7.20;99.90;;;;;;4967231;28;20027;-55
2021/12/14 08:29:00;;;;;;;28.35;13.70;;;7.20;99.90;;;;;;4969127;28;20034;-59
2021/12/14 08:31:38;;;;;;;29.48;13.07;;;7.30;99.90;;;;;;4969930;28;20507;-58
2021/12/14 08:34:10;;;;;;;28.67;13.52;;;7.30;99.90;;;;;;4968412;28;20042;-58
2021/12/14 08:36:54;;;;;;;27.35;13.55;;;7.30;99.90;;;;;;4966810;28;20031;-59
2021/12/14 08:39:23;;;;;;;32.55;15.65;;;7.30;99.90;;;;;;4968987;28;20548;-59
2021/12/14 08:41:57;;;;;;;29.83;13.80;;;7.30;99.90;;;;;;4968266;28;20154;-59
2021/12/14 08:44:36;;;;;;;28.27;14.80;;;7.40;99.90;;;;;;4967007;28;20030;-58
2021/12/14 08:47:04;;;;;;;29.40;14.35;;;7.40;99.90;;;;;;4968285;28;20069;-58
2021/12/14 08:49:30;;;;;;;28.55;14.02;;;7.40;99.90;;;;;;4969322;28;20066;-58
2021/12/14 08:51:56;;;;;;;32.78;16.92;;;7.40;99.90;;;;;;4971201;28;20488;-59
2021/12/14 08:54:29;;;;;;;38.80;17.55;;;7.40;99.90;;;;;;4969522;28;20031;-59
2021/12/14 08:57:08;;;;;;;32.22;16.42;;;7.40;99.90;;;;;;4970309;28;20030;-59
2021/12/14 08:59:36;;;;;;;31.25;15.50;;;7.40;99.90;;;;;;4970389;28;20768;-58
2021/12/14 09:02:06;;;;;;;30.30;14.48;;;7.40;99.90;;;;;;4951754;28;20130;-58
2021/12/14 09:04:36;;;;;;;31.80;14.60;;;7.40;99.90;;;;;;4965200;28;20035;-59
2021/12/14 09:07:09;;;;;;;27.33;13.98;;;7.40;99.90;;;;;;4968359;28;20019;-59
2021/12/14 09:09:35;;;;;;;53.85;26.10;;;7.40;99.90;;;;;;4968637;28;20512;-58
2021/12/14 09:12:18;;;;;;;58.38;26.70;;;7.40;99.90;;;;;;4967402;28;20445;-59
2021/12/14 09:14:46;;;;;;;53.13;25.60;;;7.40;99.90;;;;;;4969744;28;20035;-58
2021/12/14 09:17:14;;;;;;;35.95;15.60;;;7.40;99.90;;;;;;4967907;28;20507;-58
2021/12/14 09:19:54;;;;;;;35.25;17.42;;;7.40;99.90;;;;;;4967484;28;20050;-59
2021/12/14 09:22:27;;;;;;;44.58;20.40;;;7.40;99.90;;;;;;4967538;28;20042;-59
2021/12/14 09:24:54;;;;;;;39.75;18.80;;;7.40;99.90;;;;;;4965960;28;20034;-59
2021/12/14 09:27:24;;;;;;;25.98;14.35;;;7.40;99.90;;;;;;4967640;28;20122;-57
2021/12/14 09:29:53;;;;;;;70.60;36.17;;;7.40;99.90;;;;;;4969538;28;20098;-59
2021/12/14 09:32:24;;;;;;;48.20;27.00;;;7.40;99.90;;;;;;4969065;28;20059;-56
2021/12/14 09:34:51;;;;;;;56.13;25.27;;;7.40;99.90;;;;;;4968510;28;20058;-58
2021/12/14 09:37:18;;;;;;;70.50;31.95;;;7.40;99.90;;;;;;4970446;28;20042;-58
2021/12/14 09:39:48;;;;;;;56.78;25.58;;;7.50;99.90;;;;;;4964132;28;20086;-59
2021/12/14 09:42:25;;;;;;;54.97;28.13;;;7.40;99.90;;;;;;4966186;28;20057;-59
2021/12/14 09:44:53;;;;;;;50.35;25.83;;;7.50;99.90;;;;;;4970429;28;20031;-59
2021/12/14 09:47:25;;;;;;;41.90;22.15;;;7.50;99.90;;;;;;4969538;28;20031;-59
2021/12/14 09:49:51;;;;;;;33.22;17.02;;;7.50;99.90;;;;;;4969500;28;20030;-59
2021/12/14 09:52:22;;;;;;;25.88;15.63;;;7.50;99.90;;;;;;4967208;28;20153;-58
2021/12/14 09:54:49;;;;;;;24.75;15.10;;;7.50;99.90;;;;;;4967189;28;20578;-59
2021/12/14 09:57:28;;;;;;;53.60;28.92;;;7.50;99.90;;;;;;4967828;28;20500;-59
2021/12/14 09:59:55;;;;;;;28.02;15.60;;;7.60;99.90;;;;;;4968995;28;20037;-59
2021/12/14 10:02:36;;;;;;;34.05;18.25;;;7.60;99.90;;;;;;4947810;28;20074;-59
2021/12/14 10:05:19;;;;;;;26.08;13.10;;;7.60;99.90;;;;;;4966897;28;20155;-59
2021/12/14 10:07:46;;;;;;;20.63;12.00;;;7.60;99.90;;;;;;4965220;28;20505;-58
2021/12/14 10:10:14;;;;;;;21.75;12.63;;;7.60;99.90;;;;;;4968237;28;20042;-59
2021/12/14 10:12:51;;;;;;;27.98;14.57;;;7.70;99.90;;;;;;4966560;28;20046;-58
2021/12/14 10:15:33;;;;;;;23.92;14.48;;;7.80;99.90;;;;;;4965513;28;20105;-59
2021/12/14 10:18:05;;;;;;;31.98;15.25;;;7.80;99.90;;;;;;4966132;28;20102;-59
2021/12/14 10:20:39;;;;;;;33.08;17.00;;;7.80;99.90;;;;;;4964632;28;20744;-59
2021/12/14 10:23:06;;;;;;;25.70;13.00;;;7.90;99.90;;;;;;4966326;28;20026;-59
2021/12/14 10:25:32;;;;;;;24.00;10.93;;;7.90;99.90;;;;;;4966702;28;20417;-59
2021/12/14 10:27:58;;;;;;;18.70;10.85;;;7.90;99.90;;;;;;4966947;28;20019;-58
2021/12/14 10:30:35;;;;;;;22.20;12.50;;;7.90;99.90;;;;;;4967075;28;20690;-58
2021/12/14 10:33:02;;;;;;;22.10;11.77;;;8.00;99.90;;;;;;4967932;28;20046;-59
2021/12/14 10:35:35;;;;;;;23.70;10.82;;;8.10;99.90;;;;;;4967663;28;20187;-60
2021/12/14 10:38:16;;;;;;;22.10;10.00;;;8.10;99.90;;;;;;4968909;28;20131;-59
2021/12/14 10:43:33;;;;;;;19.25;11.07;;;8.20;99.90;;;;;;4966847;28;20448;-59
2021/12/14 10:46:08;;;;;;;27.73;13.13;;;8.20;99.90;;;;;;4965927;28;20086;-59
2021/12/14 10:48:39;;;;;;;15.82;9.77;;;8.20;99.90;;;;;;4968064;28;20233;-59
2021/12/14 10:51:09;;;;;;;19.42;9.80;;;8.20;99.90;;;;;;4965715;28;20039;-59
2021/12/14 10:53:36;;;;;;;21.00;11.38;;;8.20;99.90;;;;;;4966269;28;20090;-58
2021/12/14 10:56:13;;;;;;;21.45;10.10;;;8.20;99.90;;;;;;4964266;28;20603;-57
2021/12/14 10:58:40;;;;;;;21.98;9.75;;;8.20;99.90;;;;;;4948247;28;20054;-59
2021/12/14 11:01:16;;;;;;;17.10;9.50;;;8.20;99.90;;;;;;4926162;28;20046;-59
2021/12/14 11:03:46;;;;;;;21.15;10.52;;;8.20;99.90;;;;;;4946939;28;20041;-58
2021/12/14 11:06:17;;;;;;;21.65;9.45;;;8.20;99.90;;;;;;4959837;28;20042;-59
2021/12/14 11:11:21;;;;;;;23.13;10.43;;;8.20;99.90;;;;;;4962603;28;20053;-59
2021/12/14 11:13:50;;;;;;;14.35;9.45;;;8.20;99.90;;;;;;4960584;28;20439;-59
2021/12/14 11:16:32;;;;;;;18.60;9.45;;;8.20;99.90;;;;;;4968626;28;20042;-59
2021/12/14 11:19:03;;;;;;;16.77;9.70;;;8.20;99.90;;;;;;4965847;28;20065;-57
2021/12/14 11:21:28;;;;;;;22.02;10.95;;;8.10;99.90;;;;;;4963504;28;20035;-58
2021/12/14 11:23:55;;;;;;;18.67;10.15;;;8.20;99.90;;;;;;4947780;28;20054;-57
2021/12/14 11:26:29;;;;;;;18.48;9.60;;;8.20;99.90;;;;;;4969164;28;20039;-56
2021/12/14 11:28:58;;;;;;;20.70;12.07;;;8.20;99.90;;;;;;4953552;28;20639;-59
2021/12/14 11:31:28;;;;;;;15.95;9.75;;;8.10;99.90;;;;;;4971360;28;20042;-59
2021/12/14 11:33:56;;;;;;;35.58;16.60;;;8.20;99.90;;;;;;4953854;28;20054;-59
2021/12/14 11:36:54;;;;;;;22.25;10.55;;;8.20;99.90;;;;;;4953730;28;20070;-55
2021/12/14 11:39:25;;;;;;;20.70;10.02;;;8.20;99.90;;;;;;4961778;28;20085;-59
2021/12/14 11:42:02;;;;;;;19.88;10.82;;;8.20;99.90;;;;;;4954255;28;20022;-58
2021/12/14 11:44:37;;;;;;;17.13;9.35;;;8.20;99.90;;;;;;4957133;28;20581;-58
2021/12/14 11:47:32;;;;;;;17.63;10.75;;;8.30;99.90;;;;;;4970598;28;20374;-59
2021/12/14 11:50:13;;;;;;;18.23;10.10;;;8.20;99.90;;;;;;4971490;28;20031;-57
2021/12/14 11:52:57;;;;;;;72.15;29.58;;;8.20;99.90;;;;;;4971247;28;20591;-57
2021/12/14 11:55:41;;;;;;;31.85;15.73;;;8.20;99.90;;;;;;4969437;28;20073;-58
2021/12/14 11:58:18;;;;;;;29.25;13.18;;;8.30;99.90;;;;;;4971336;28;20030;-59
2021/12/14 12:00:55;;;;;;;39.70;17.50;;;8.40;99.90;;;;;;4952683;28;20054;-58
2021/12/14 12:03:56;;;;;;;21.02;10.73;;;8.40;99.90;;;;;;4971465;28;20084;-58
2021/12/14 12:06:45;;;;;;;26.05;12.65;;;8.40;99.90;;;;;;4955166;28;20042;-56
2021/12/14 12:09:32;;;;;;;57.05;29.73;;;8.30;99.90;;;;;;4970971;28;20063;-59
2021/12/14 12:12:10;;;;;;;41.75;21.52;;;8.30;99.90;;;;;;4971358;28;20039;-59
2021/12/14 12:14:46;;;;;;;27.50;14.52;;;8.40;99.90;;;;;;4971157;28;20034;-57
2021/12/14 12:17:45;;;;;;;15.05;9.25;;;8.40;99.90;;;;;;4970797;28;20415;-58
2021/12/14 12:20:26;;;;;;;25.15;15.40;;;8.30;99.90;;;;;;4968758;28;20270;-59
2021/12/14 12:23:12;;;;;;;20.83;12.45;;;8.30;99.90;;;;;;4970430;28;20034;-59
2021/12/14 12:25:40;;;;;;;29.95;17.10;;;8.30;99.90;;;;;;4970836;28;20553;-59
2021/12/14 12:28:08;;;;;;;24.50;14.25;;;8.30;99.90;;;;;;4975086;28;20034;-59
2021/12/14 12:30:41;;;;;;;22.65;13.88;;;8.40;99.90;;;;;;4971339;28;20034;-59
2021/12/14 12:33:18;;;;;;;20.40;11.70;;;8.40;99.90;;;;;;4971741;28;20631;-59
2021/12/14 12:35:49;;;;;;;18.35;10.27;;;8.40;99.90;;;;;;4970411;28;20043;-59
2021/12/14 12:38:33;;;;;;;19.23;10.15;;;8.50;99.90;;;;;;4971318;28;20034;-59
2021/12/14 12:41:24;;;;;;;21.85;12.43;;;8.50;99.90;;;;;;4968690;28;20118;-57
2021/12/14 12:43:52;;;;;;;24.13;12.13;;;8.50;99.90;;;;;;4967134;28;20042;-58
2021/12/14 12:46:28;;;;;;;24.80;13.13;;;8.50;99.90;;;;;;4962941;28;20018;-59
2021/12/14 12:48:54;;;;;;;24.27;12.68;;;8.40;99.90;;;;;;4960110;28;20497;-58
2021/12/14 12:51:48;;;;;;;20.63;12.25;;;8.40;99.90;;;;;;4964641;28;20089;-59
2021/12/14 12:54:16;;;;;;;26.17;12.07;;;8.40;99.90;;;;;;4965994;28;20106;-58
2021/12/14 12:56:43;;;;;;;25.35;13.10;;;8.50;99.90;;;;;;4965104;28;20042;-59
2021/12/14 12:59:11;;;;;;;632.30;268.98;;;8.40;99.90;;;;;;4967966;28;20023;-59
2021/12/14 13:01:37;;;;;;;115.68;48.47;;;8.40;99.90;;;;;;4947261;28;20053;-59
2021/12/14 13:04:03;;;;;;;49.50;22.55;;;8.50;99.90;;;;;;4976736;28;20035;-56
2021/12/14 13:06:29;;;;;;;32.10;17.20;;;8.60;99.90;;;;;;4969011;28;20527;-56
2021/12/14 13:08:58;;;;;;;314.13;104.05;;;8.60;99.90;;;;;;4969967;28;20106;-59
2021/12/14 13:11:36;;;;;;;130.07;49.15;;;8.60;99.90;;;;;;4967549;28;20210;-58
2021/12/14 13:14:04;;;;;;;43.08;18.38;;;8.60;99.90;;;;;;4966073;28;20071;-59
2021/12/14 13:16:38;;;;;;;30.23;13.88;;;8.60;99.90;;;;;;4966412;28;20037;-58
2021/12/14 13:19:11;;;;;;;30.00;12.77;;;8.60;99.90;;;;;;4968369;28;20041;-58
2021/12/14 13:21:42;;;;;;;79.65;35.10;;;8.60;99.90;;;;;;4969893;28;20031;-58
2021/12/14 13:24:27;;;;;;;63.22;31.80;;;8.60;99.90;;;;;;4968310;28;20073;-59
2021/12/14 13:27:09;;;;;;;70.72;32.35;;;8.60;99.90;;;;;;4968811;28;20380;-59
2021/12/14 13:29:59;;;;;;;56.63;25.73;;;8.60;99.90;;;;;;4969350;28;20420;-59
2021/12/14 13:32:33;;;;;;;29.33;14.35;;;8.60;99.90;;;;;;4966146;28;20115;-56
2021/12/14 13:34:58;;;;;;;;;;;8.60;99.90;;;;;;4969067;28;20575;-59
2021/12/14 13:37:59;;;;;;;37.72;17.55;;;8.60;99.90;;;;;;4969384;28;20034;-59